Etusivu
METAR-TAF:

METAR-TAF

Lentoasemat :

Arctic Bay, Nunavut, Kanada

Leveyspiiri: 73-00-23N, Pituuspiiri: 085-02-50W, korkeus merenpinnasta: 22 m

Tämänhetkinen sää

Tämä raportti tehtiin 44 minuuttia sitten, kello 11.00 UTC
tyyntä
Lämpötila -28°C
Kosteus 75%
Ilmanpaine 1037 hPa
Näkyvyys: 48.3 km
Muutamia pilviä 1800 ft:n korkeudessa

METAR: CYAB 141100Z 00000KT 30SM FEW018 M28/M31 A3063 RMK SC1 SC TR FROIN SNW CVR/MEDIUM PACK SLP378

Aika: 07:44 (11:44 UTC)

Sääennuste

Tämä raportti tehtiin 23 tuntia ja 6 minuuttia sitten, kello 12.38 UTC
Ennuste voimassa 13. päivästä klo 13 UTC - 13. päivään klo 20 UTC
Tuuli 3 kn eri suunnista
Näkyvyys: 10 km
Muutamia pilviä 4000 ft:n korkeudessa

TAF: CYAB 131238Z 1313/1320 VRB03KT P6SM FEW040 RMK NXT FCST WILL BE ISSUED AT 141245Z

Säähavainnot ja -ennusteet yli 4000 lentoasemalta (METAR- ja TAF-raportit).

Käytössä olevat sääasemat on merkitty karttaan keltaisilla ja punaisilla pisteillä.

Aseta hiiri pisteen päälle nähdäksesi sääaseman nimen.

Klikkaa sitten nähdäksesi säähavainnot ja -ennusteet.

Kartan vaihtaminen: klikkaa mustalla rastilla varustettuja vihreitä pisteitä, niin voit zoomata sisään; viivalla varustettua vihreää pistettä, niin voit zoomata ulos tai vihreitä nuolia, niin pääset viereisille kartoille.


METAR-TAF: